Aeroporto :
LOGIN :

Iscrizione | Disclaimer

   EN    FR    IT 

 










Sommario :    VFR   VFR Marginale   IFR   IFR Intensivo   IFR Molto Intensivo
Visibilità : 
Base nubi : 
>= 8 km
>= 3000ft
5 / 8 km
1000 / 3000 ft
1500m / 5 km
500 / 1000 ft
800 / 1500m
200 / 500 ft
< 800m
< 200 ft
Simboli :   Temporali  Nebbia  Neve Forte  Precipitazioni Forti  Vento > 20 kt
SIGMETs :   Varie  Temporali  Ghiacco  Turbolenza  Onda orograficha  Ceneri Vulcaniche






- Altitudine del aeroporto : 296 ft
- Codice IATA : GKE


ETNG - Geilenkirchen

ULTIMO METAR :
  • 140050Z 18002KT CAVOK 21/18 Q1012

METARs OBSOLETI :
  • 132350Z 00000KT CAVOK 20/18 Q1013
  • 132250Z 27002KT CAVOK 21/18 Q1013

TAF TAF ETNG
Valido dal 14 a 00 ore il 14 a 15 ore UTC


132300Z 1400/1415 VRB03KT CAVOK
BECMG 1406/1408 22008KT
PROB30
TEMPO 1406/1412 VRB15G25KT 4000 TSRA BKN050CB



MetMap, La meteo Aeronautica in un colpo d'occhio ! - Copyright ORBIFLY Dicembre 2007 - Disclaimer

ORBIFLY MET'MAP TEAM :

Programmazione e sviluppo : Alexandra Zaïnal
Concezione : Baudouin d'Aumeries
Aiuto per la programmazione : Marc-Olivier Méhu
Supporto tecnico e logistico : Manuel Goepfert
Aiuto per la traduzione : Arnaldo La Scala

Contatto : metmap@orbifly.com




FONTI E CREDITI :

   NOAA